createdAt,value
2017-04-01T00:00:06.358Z,62.1
2017-04-01T00:10:06.360Z,61.6
2017-04-01T00:20:06.388Z,62.1
2017-04-01T00:30:06.364Z,62.1
2017-04-01T00:40:06.355Z,61.6
2017-04-01T00:50:06.367Z,61.6
2017-04-01T01:00:06.389Z,61.6
2017-04-01T01:10:06.357Z,61.6
2017-04-01T01:20:07.870Z,61.6
2017-04-01T01:30:06.357Z,61.6
2017-04-01T01:40:06.392Z,61.6
2017-04-01T01:50:06.356Z,61.1
2017-04-01T02:00:06.355Z,61.6
2017-04-01T02:10:06.358Z,60.5
2017-04-01T02:20:06.365Z,61.1
2017-04-01T02:30:06.333Z,61.6
2017-04-01T02:40:06.388Z,61.1
2017-04-01T02:50:06.390Z,60.5
2017-04-01T03:00:06.389Z,60.5
2017-04-01T03:10:06.356Z,60.5
2017-04-01T03:20:06.415Z,60.5
2017-04-01T03:30:06.359Z,60.5
2017-04-01T03:40:06.402Z,61.1
2017-04-01T03:50:06.357Z,60.5
2017-04-01T04:00:06.357Z,60.5
2017-04-01T04:10:06.362Z,60.5
2017-04-01T04:20:06.357Z,60
2017-04-01T04:30:06.377Z,60.5
2017-04-01T04:40:06.392Z,60.5
2017-04-01T04:50:06.385Z,60
2017-04-01T05:00:06.358Z,60
2017-04-01T05:10:06.360Z,60
2017-04-01T05:20:06.358Z,60
2017-04-01T05:30:06.358Z,60
2017-04-01T05:40:06.366Z,60
2017-04-01T05:50:06.393Z,59.5
2017-04-01T06:00:06.358Z,60
2017-04-01T06:10:06.360Z,60
2017-04-01T06:20:06.396Z,60
2017-04-01T06:30:06.390Z,60
2017-04-01T06:40:06.355Z,60
2017-04-01T06:50:06.391Z,60
2017-04-01T07:00:03.041Z,60
2017-04-01T07:10:06.358Z,60
2017-04-01T07:20:06.387Z,60
2017-04-01T07:30:06.361Z,60
2017-04-01T07:40:02.075Z,59.5
2017-04-01T07:50:06.357Z,60
2017-04-01T08:00:06.358Z,60
2017-04-01T08:10:06.360Z,60
2017-04-01T08:20:01.675Z,60.5
2017-04-01T08:30:06.356Z,60
2017-04-01T08:40:06.358Z,60.5
2017-04-01T08:50:06.366Z,60.5
2017-04-01T09:00:06.336Z,60.5
2017-04-01T09:10:06.392Z,60
2017-04-01T09:20:06.358Z,60.5
2017-04-01T09:30:06.356Z,60.5
2017-04-01T09:40:06.343Z,61.6
2017-04-01T09:50:06.364Z,60.5
2017-04-01T10:00:06.385Z,60.5
2017-04-01T10:10:06.395Z,61.6
2017-04-01T10:20:06.361Z,61.1
2017-04-01T10:30:06.421Z,60.5
2017-04-01T10:40:06.366Z,61.6
2017-04-01T10:50:06.393Z,61.6
2017-04-01T11:00:06.356Z,61.6
2017-04-01T11:10:06.360Z,62.1
2017-04-01T11:20:06.333Z,61.6
2017-04-01T11:30:06.363Z,61.6
2017-04-01T11:40:06.366Z,61.6
2017-04-01T11:50:06.357Z,62.1
2017-04-01T12:00:06.388Z,62.1
2017-04-01T12:10:06.366Z,61.6
2017-04-01T12:20:06.359Z,62.1
2017-04-01T12:30:06.357Z,62.1
2017-04-01T12:40:06.384Z,61.6
2017-04-01T12:50:06.358Z,61.6
2017-04-01T13:00:06.397Z,61.6
2017-04-01T13:10:06.431Z,62.7
2017-04-01T13:20:06.389Z,62.1
2017-04-01T13:30:06.371Z,61.6
2017-04-01T13:40:06.363Z,62.7
2017-04-01T13:50:06.364Z,62.7
2017-04-01T14:00:06.360Z,62.7
2017-04-01T14:10:06.359Z,62.1
2017-04-01T14:20:06.398Z,62.1
2017-04-01T14:30:06.338Z,63.2
2017-04-01T14:40:06.360Z,62.7
2017-04-01T14:50:06.359Z,62.7
2017-04-01T15:00:06.358Z,62.7
2017-04-01T15:10:06.335Z,62.7
2017-04-01T15:20:06.399Z,63.2
2017-04-01T15:30:06.366Z,62.1
2017-04-01T15:40:06.360Z,62.7
2017-04-01T15:50:06.339Z,62.7
2017-04-01T16:00:06.366Z,62.1
2017-04-01T16:10:06.385Z,62.1
2017-04-01T16:20:06.362Z,62.7
2017-04-01T16:30:06.358Z,62.1
2017-04-01T16:40:06.357Z,62.1
2017-04-01T16:50:06.357Z,62.7
2017-04-01T17:00:06.397Z,61.6
2017-04-01T17:10:06.358Z,62.7
2017-04-01T17:20:06.362Z,62.1
2017-04-01T17:30:06.427Z,61.6
2017-04-01T17:40:06.362Z,62.1
2017-04-01T17:50:06.363Z,62.1
2017-04-01T18:00:06.368Z,61.6
2017-04-01T18:10:06.366Z,61.6
2017-04-01T18:20:06.361Z,62.1
2017-04-01T18:30:06.362Z,61.6
2017-04-01T18:40:06.377Z,61.6
2017-04-01T18:50:06.361Z,61.6
2017-04-01T19:00:06.363Z,61.6
2017-04-01T19:10:06.367Z,61.6
2017-04-01T19:20:06.362Z,61.1
2017-04-01T19:30:06.359Z,61.6
2017-04-01T19:40:06.368Z,61.1
2017-04-01T19:50:06.363Z,61.6
2017-04-01T20:00:06.398Z,61.6
2017-04-01T20:10:06.359Z,61.6
2017-04-01T20:20:06.407Z,60.5
2017-04-01T20:30:06.391Z,60.5
2017-04-01T20:40:06.366Z,60.5
2017-04-01T20:50:06.367Z,60.5
2017-04-01T21:00:06.387Z,60.5
2017-04-01T21:10:06.335Z,60.5
2017-04-01T21:20:06.375Z,60.5
2017-04-01T21:30:06.359Z,60.5
2017-04-01T21:40:06.399Z,60.5
2017-04-01T21:50:06.335Z,60.5
2017-04-01T22:00:06.355Z,60.5
2017-04-01T22:10:06.396Z,60.5
2017-04-01T22:20:06.400Z,60
2017-04-01T22:30:06.391Z,60
2017-04-01T22:40:06.357Z,60.5
2017-04-01T22:50:06.377Z,60.5
2017-04-01T23:00:06.360Z,60.5
2017-04-01T23:10:06.366Z,60.5
2017-04-01T23:20:06.359Z,60
2017-04-01T23:30:06.361Z,59.5
2017-04-01T23:40:06.381Z,60
2017-04-01T23:50:06.393Z,60.5
